Sunday, February 17, 2019, 2:06 PM CST
Back to Local

KLOT, Chicago/romeoville, Lewis University Airport

Location: Lockport, IL, United States Lat: 41.608
Local Time: 2:06 PM CST (20:06 GMT) Lon: -88.094
Time Zone: US/Central Elev: 672 ft

Show me the last for .
Show Coded

Time T Td Feel RH Dir Speed Gust Alt SLP Vis Weather Sky Remarks
2019-02-17 13:35 27 25 20 92 70° 7 - 29.80 - 4 BR OVC010 None
2019-02-17 13:15 27 25 20 92 70° 7 - 29.81 - 5 BR OVC010 None
2019-02-17 12:55 27 25 19 91 90° 7 - 29.81 - 5 BR OVC010 None
2019-02-17 12:35 27 25 18 90 70° 10 - 29.81 - 4 BR OVC010 None
2019-02-17 12:15 27 24 17 88 90° 10 - 29.82 - 5 BR OVC012 None
2019-02-17 11:55 27 24 17 86 90° 12 - 29.83 - 5 BR OVC014 6-hr Min Temp (12pm): 24.1°F
6-hr Max Temp (12pm): 27.1°F
2019-02-17 11:35 27 23 16 86 80° 13 - 29.84 - 5 BR OVC014 None
2019-02-17 11:15 27 23 15 85 90° 14 - 29.85 - 7 BKN014 BKN028 OVC033 None
2019-02-17 10:55 27 23 13 86 100° 10 20 29.85 - 5 BR SCT012 SCT030 OVC044 None
2019-02-17 10:35 26 23 15 88 100° 13 - 29.85 - 3 -SN BKN010 BKN017 OVC046 None
2019-02-17 10:15 26 23 17 87 90° 9 - 29.85 - 2 -SN BKN014 OVC028 None
2019-02-17 09:55 26 23 14 86 90° 16 - 29.85 - 3 -SN BKN012 BKN029 OVC044 None
2019-02-17 09:35 26 22 14 87 90° 15 - 29.84 - 7 BKN012 BKN024 OVC055 None
2019-02-17 09:15 25 22 15 88 80° 12 - 29.86 - 3 -SN SCT010 BKN036 OVC055 None
2019-02-17 08:55 25 22 11 88 90° 14 18 29.87 - 1 -SN SCT019 OVC026 None
2019-02-17 08:35 25 22 13 87 90° 14 - 29.87 - 1 -SN SCT013 BKN020 OVC029 None
2019-02-17 08:15 25 21 11 85 90° 14 17 29.88 - 3 BR SCT015 BKN026 OVC060 None
2019-02-17 07:55 25 21 13 84 80° 14 - 29.87 - 5 BR SCT015 BKN034 OVC060 None
2019-02-17 07:35 24 20 11 83 80° 13 17 29.88 - 7 -SN SCT015 SCT023 OVC070 None
2019-02-17 07:15 24 20 13 84 100° 12 - 29.88 - 10 OVC070 None
2019-02-17 06:55 24 20 12 84 90° 14 - 29.87 - 7 OVC070 None
2019-02-17 06:35 24 21 14 85 90° 10 - 29.87 - 7 -SN SCT046 BKN050 OVC070 None
2019-02-17 06:15 24 21 13 85 90° 12 - 29.89 - 4 -SN SCT017 SCT024 OVC050 None
2019-02-17 05:55 25 20 14 82 100° 10 - 29.91 - 7 -SN SCT019 BKN041 OVC060 6-hr Min Temp (6am): 24.3°F
6-hr Max Temp (6am): 24.8°F
2019-02-17 05:35 25 20 15 82 90° 9 - 29.92 - 10 SCT019 SCT046 OVC060 None
2019-02-17 05:15 25 20 14 82 80° 12 - 29.91 - 10 BKN060 OVC070 None
2019-02-17 04:55 25 20 15 82 90° 9 - 29.92 - 10 BKN017 OVC070 None
2019-02-17 04:35 24 20 15 82 90° 9 - 29.92 - 10 OVC017 None
2019-02-17 04:15 24 19 14 80 100° 12 - 29.93 - 10 OVC017 None
2019-02-17 03:55 24 20 14 82 80° 10 - 29.92 - 10 OVC017 None
2019-02-17 03:35 24 19 14 80 90° 10 - 29.93 - 10 OVC017 None
2019-02-17 03:15 24 19 14 80 80° 12 - 29.94 - 10 OVC017 None
2019-02-17 02:55 24 19 16 80 90° 7 - 29.95 - 10 OVC017 None
2019-02-17 02:35 24 19 13 80 90° 13 - 29.94 - 10 OVC017 None
2019-02-17 02:15 25 19 14 80 100° 10 - 29.96 - 10 OVC017 None
2019-02-17 01:55 24 19 15 80 110° 9 - 29.95 - 10 OVC017 None
2019-02-17 01:35 25 19 13 80 110° 13 - 29.96 - 10 OVC017 None
2019-02-17 01:15 25 19 16 80 100° 8 - 29.96 - 10 OVC017 None
2019-02-17 00:55 25 19 14 79 110° 10 - 29.98 - 10 OVC019 None
2019-02-17 00:35 25 19 14 78 120° 12 - 29.99 - 10 OVC019 None
2019-02-17 00:15 25 19 15 78 110° 10 - 29.99 - 10 OVC019 None
2019-02-16 23:55 25 19 11 77 110° 10 20 29.97 - 10 OVC019 6-hr Min Temp (12am): 24.8°F
6-hr Max Temp (12am): 26.6°F
24-hr Min Temp (12am): 13.8°F
24-hr Max Temp (12am): 29.8°F
2019-02-16 23:35 25 19 11 78 110° 12 18 29.95 - 10 OVC021 None
2019-02-16 23:15 25 19 11 76 100° 17 21 29.95 - 10 OVC021 None
2019-02-16 22:55 26 19 15 76 110° 13 - 29.97 - 10 OVC021 None
2019-02-16 22:35 26 19 15 75 100° 13 - 29.97 - 10 OVC021 None
2019-02-16 22:15 26 20 16 75 90° 10 - 29.99 - 10 OVC021 None
2019-02-16 21:55 26 19 13 74 110° 13 18 30.00 - 10 OVC021 None
2019-02-16 21:35 26 20 12 76 90° 14 20 30.01 - 10 OVC021 None
2019-02-16 21:15 26 20 16 77 80° 10 - 30.01 - 10 OVC019 None
2019-02-16 20:55 26 19 16 76 90° 10 - 30.01 - 10 OVC019 None
2019-02-16 20:35 26 20 15 79 80° 10 - 30.00 - 10 OVC019 None
2019-02-16 20:15 26 20 16 79 70° 9 - 30.01 - 10 OVC019 None
2019-02-16 19:55 26 20 16 78 60° 9 - 30.02 - 10 OVC019 None
2019-02-16 19:35 25 20 17 78 80° 8 - 30.04 - 10 OVC019 None
2019-02-16 19:15 25 19 16 77 100° 8 - 30.05 - 10 OVC019 None
2019-02-16 18:55 25 19 12 77 90° 13 17 30.07 - 10 OVC019 None
2019-02-16 18:35 26 20 15 79 60° 12 - 30.06 - 10 OVC019 None
2019-02-16 18:15 26 20 14 77 60° 15 - 30.05 - 10 OVC019 None
2019-02-16 17:55 27 20 17 74 80° 9 - 30.05 - 10 OVC021 6-hr Min Temp (6pm): 26.6°F
6-hr Max Temp (6pm): 29.8°F
2019-02-16 17:35 27 20 13 75 80° 15 18 30.04 - 10 OVC021 None
2019-02-16 17:15 27 21 17 76 90° 13 - 30.04 - 10 OVC021 None
2019-02-16 16:55 28 21 17 74 90° 14 - 30.04 - 10 OVC021 None
2019-02-16 16:35 28 22 17 76 80° 9 16 30.04 - 10 OVC021 None
2019-02-16 16:15 29 22 19 74 80° 12 - 30.04 - 10 OVC023 None
2019-02-16 15:55 29 21 19 72 90° 12 - 30.04 - 10 OVC021 None
2019-02-16 15:35 29 22 17 74 70° 14 17 30.04 - 10 OVC023 None
2019-02-16 15:15 30 22 19 72 90° 14 - 30.04 - 10 OVC023 None
2019-02-16 14:55 29 22 22 74 80° 8 - 30.04 - 10 OVC023 None
2019-02-16 14:35 30 23 21 74 50° 9 - 30.05 - 10 OVC023 None
2019-02-16 14:15 29 22 22 73 50° 8 - 30.05 - 10 OVC023 None

Support USWX by starting your Amazon purchase here.